createdAt,value
2022-11-10T00:02:47.384Z,100752.31
2022-11-10T00:08:15.133Z,100753.16
2022-11-10T00:14:01.353Z,100754.91
2022-11-10T00:19:26.086Z,100767.88
2022-11-10T00:24:52.200Z,100773.03
2022-11-10T00:30:17.657Z,100779.97
2022-11-10T00:35:42.578Z,100780.91
2022-11-10T00:41:08.915Z,100782.63
2022-11-10T00:46:34.167Z,100781.78
2022-11-10T00:51:59.171Z,100776.56
2022-11-10T00:57:25.823Z,100774.84
2022-11-10T01:02:50.538Z,100779.94
2022-11-10T01:08:15.046Z,100785.16
2022-11-10T01:13:41.495Z,100774.75
2022-11-10T01:19:06.528Z,100783.44
2022-11-10T01:24:30.997Z,100772.16
2022-11-10T01:29:58.108Z,100775.63
2022-11-10T01:35:23.207Z,100774.78
2022-11-10T01:40:48.108Z,100766.13
2022-11-10T01:46:15.788Z,100769.56
2022-11-10T01:51:46.796Z,100765.22
2022-11-10T01:57:15.627Z,100764.34
2022-11-10T02:02:46.897Z,100783.34
2022-11-10T02:08:12.750Z,100781.66
2022-11-10T02:13:38.035Z,100785.06
2022-11-10T02:19:17.637Z,100790.28
2022-11-10T02:24:43.862Z,100798.88
2022-11-10T02:30:10.884Z,100803.22
2022-11-10T02:35:35.318Z,100813.59
2022-11-10T02:41:01.316Z,100810.94
2022-11-10T02:46:26.357Z,100815.28
2022-11-10T02:51:51.178Z,100827.38
2022-11-10T02:57:17.285Z,100826.47
2022-11-10T03:02:41.997Z,100819.56
2022-11-10T03:08:07.616Z,100825.63
2022-11-10T03:13:58.496Z,100833.41
2022-11-10T03:19:19.308Z,100833.41
2022-11-10T03:24:44.260Z,100828.19
2022-11-10T03:30:12.289Z,100838.56
2022-11-10T03:35:55.235Z,100833.34
2022-11-10T03:41:20.858Z,100829.88
2022-11-10T03:46:51.417Z,100843.75
2022-11-10T03:52:17.144Z,100843.75
2022-11-10T03:57:42.175Z,100852.41
2022-11-10T04:03:08.285Z,100851.50
2022-11-10T04:08:50.413Z,100852.38
2022-11-10T04:14:33.293Z,100854.09
2022-11-10T04:19:59.477Z,100856.66
2022-11-10T04:25:24.348Z,100868.78
2022-11-10T04:30:49.177Z,100860.97
2022-11-10T04:36:17.790Z,100864.44
2022-11-10T04:41:42.476Z,100867.03
2022-11-10T04:47:11.631Z,100886.06
2022-11-10T04:52:38.495Z,100881.72
2022-11-10T04:58:03.163Z,100883.44
2022-11-10T05:03:29.775Z,100884.25
2022-11-10T05:08:56.890Z,100887.72
2022-11-10T05:14:21.629Z,100891.16
2022-11-10T05:19:47.698Z,100893.78
2022-11-10T05:25:13.954Z,100903.31
2022-11-10T05:30:40.118Z,100904.13
2022-11-10T05:36:05.484Z,100911.94
2022-11-10T05:41:31.868Z,100924.91
2022-11-10T05:46:56.734Z,100932.72
2022-11-10T05:52:21.733Z,100941.34
2022-11-10T05:57:49.894Z,100943.94
2022-11-10T06:03:18.238Z,100944.78
2022-11-10T06:08:43.378Z,100939.56
2022-11-10T06:14:09.825Z,100969.88
2022-11-10T06:19:34.547Z,100994.19
2022-11-10T06:25:00.239Z,101011.47
2022-11-10T06:30:26.968Z,101014.94
2022-11-10T06:35:52.039Z,101021.00
2022-11-10T06:41:21.238Z,101020.06
2022-11-10T06:46:50.560Z,101020.06
2022-11-10T06:52:15.805Z,101023.50
2022-11-10T06:57:41.104Z,101029.50
2022-11-10T07:03:11.896Z,101034.72
2022-11-10T07:08:36.728Z,101057.28
2022-11-10T07:14:01.169Z,101060.69
2022-11-10T07:19:27.067Z,101066.72
2022-11-10T07:24:51.579Z,101063.19
2022-11-10T07:30:16.922Z,101060.56
2022-11-10T07:35:43.589Z,101059.72
2022-11-10T07:41:08.264Z,101077.88
2022-11-10T07:46:33.029Z,101089.97
2022-11-10T07:51:58.913Z,101098.63
2022-11-10T07:57:23.637Z,101102.94
2022-11-10T08:02:48.762Z,101094.22
2022-11-10T08:08:15.489Z,101117.66
2022-11-10T08:13:40.891Z,101120.22
2022-11-10T08:19:05.434Z,101125.34
2022-11-10T08:24:31.890Z,101122.72
2022-11-10T08:29:56.702Z,101138.25
2022-11-10T08:35:21.611Z,101146.00
2022-11-10T08:40:48.294Z,101159.94
2022-11-10T08:46:12.592Z,101174.63
2022-11-10T08:51:39.198Z,101165.88
2022-11-10T08:57:05.702Z,101174.53
2022-11-10T09:02:30.792Z,101191.84
2022-11-10T09:07:56.064Z,101190.16
2022-11-10T09:13:29.143Z,101188.31
2022-11-10T09:18:54.900Z,101199.56
2022-11-10T09:24:19.655Z,101203.00
2022-11-10T09:29:45.785Z,101211.63
2022-11-10T09:35:10.443Z,101222.88
2022-11-10T09:40:51.076Z,101215.00
2022-11-10T09:46:24.950Z,101226.22
2022-11-10T09:51:50.990Z,101222.69
2022-11-10T09:57:20.613Z,101228.75
2022-11-10T10:02:52.270Z,101236.53
2022-11-10T10:08:33.908Z,101244.31
2022-11-10T10:14:20.301Z,101231.16
2022-11-10T10:19:57.493Z,101240.63
2022-11-10T10:25:27.408Z,101243.19
2022-11-10T10:30:52.198Z,101247.53
2022-11-10T10:36:21.978Z,101244.00
2022-11-10T10:41:48.053Z,101249.16
2022-11-10T10:47:12.653Z,101243.03
2022-11-10T10:52:39.107Z,101256.81
2022-11-10T10:58:06.671Z,101249.84
2022-11-10T11:03:41.194Z,101257.63
2022-11-10T11:09:18.023Z,101256.66
2022-11-10T11:14:45.982Z,101254.06
2022-11-10T11:20:16.196Z,101262.69
2022-11-10T11:25:47.024Z,101272.16
2022-11-10T11:31:21.779Z,101272.94
2022-11-10T11:36:54.869Z,101275.53
2022-11-10T11:42:34.524Z,101281.53
2022-11-10T11:48:21.490Z,101283.28
2022-11-10T11:54:26.846Z,101289.41
2022-11-10T12:00:10.796Z,101300.69
2022-11-10T12:05:51.137Z,101302.38
2022-11-10T12:11:30.887Z,101308.50
2022-11-10T12:17:07.344Z,101314.56
2022-11-10T12:22:44.861Z,101309.34
2022-11-10T12:28:17.873Z,101316.28
2022-11-10T12:33:49.065Z,101321.44
2022-11-10T12:39:21.816Z,101338.78
2022-11-10T12:45:02.054Z,101347.47
2022-11-10T12:50:42.669Z,101350.16
2022-11-10T12:56:14.936Z,101352.75
2022-11-10T13:01:45.594Z,101362.38
2022-11-10T13:07:14.649Z,101370.28
2022-11-10T13:12:59.270Z,101364.16
2022-11-10T13:19:01.140Z,101376.34
2022-11-10T13:24:28.815Z,101382.47
2022-11-10T13:29:58.319Z,101393.84
2022-11-10T13:36:02.861Z,101399.88
2022-11-10T13:41:29.568Z,101401.66
2022-11-10T13:47:41.517Z,101419.06
2022-11-10T13:53:25.343Z,101430.41
2022-11-10T13:58:52.845Z,101440.00
2022-11-10T14:04:43.250Z,101447.00
2022-11-10T14:10:16.876Z,101451.41
2022-11-10T14:15:46.709Z,101448.88
2022-11-10T14:21:23.901Z,101467.19
2022-11-10T14:26:53.733Z,101479.41
2022-11-10T14:32:23.318Z,101493.34
2022-11-10T14:37:48.467Z,101496.00
2022-11-10T14:43:29.298Z,101514.31
2022-11-10T14:49:02.304Z,101530.03
2022-11-10T14:54:29.802Z,101528.31
2022-11-10T14:59:54.951Z,101532.69
2022-11-10T15:05:21.584Z,101532.75
2022-11-10T15:10:49.869Z,101547.53
2022-11-10T15:16:26.913Z,101562.34
2022-11-10T15:21:53.211Z,101568.44
2022-11-10T15:27:27.233Z,101569.31
2022-11-10T15:32:52.208Z,101573.69
2022-11-10T15:38:33.023Z,101578.94
2022-11-10T15:43:58.109Z,101587.66
2022-11-10T15:49:26.704Z,101594.63
2022-11-10T15:54:53.800Z,101608.53
2022-11-10T16:00:19.408Z,101616.41
2022-11-10T16:05:44.721Z,101629.38
2022-11-10T16:11:18.338Z,101648.50
2022-11-10T16:16:43.590Z,101668.47
2022-11-10T16:22:08.383Z,101678.00
2022-11-10T16:27:39.385Z,101672.81
2022-11-10T16:33:04.919Z,101686.69
2022-11-10T16:38:32.173Z,101701.47
2022-11-10T16:43:58.611Z,101710.13
2022-11-10T16:49:33.394Z,101714.47
2022-11-10T16:54:58.416Z,101715.34
2022-11-10T17:00:25.899Z,101718.81
2022-11-10T17:05:51.362Z,101711.00
2022-11-10T17:11:16.873Z,101711.81
2022-11-10T17:16:46.101Z,101717.91
2022-11-10T17:22:12.804Z,101716.16
2022-11-10T17:27:38.739Z,101731.75
2022-11-10T17:33:05.904Z,101737.81
2022-11-10T17:38:34.999Z,101756.00
2022-11-10T17:44:00.448Z,101760.31
2022-11-10T17:49:27.411Z,101767.22
2022-11-10T17:54:52.691Z,101760.28
2022-11-10T18:00:20.926Z,101760.28
2022-11-10T18:05:48.924Z,101771.47
2022-11-10T18:11:17.052Z,101770.63
2022-11-10T18:16:43.812Z,101773.19
2022-11-10T18:22:10.703Z,101770.59
2022-11-10T18:27:36.718Z,101771.47
2022-11-10T18:33:04.518Z,101771.44
2022-11-10T18:38:31.982Z,101774.91
2022-11-10T18:43:57.881Z,101780.06
2022-11-10T18:49:23.145Z,101794.81
2022-11-10T18:54:50.353Z,101793.06
2022-11-10T19:00:17.044Z,101796.53
2022-11-10T19:05:43.646Z,101804.31
2022-11-10T19:11:15.522Z,101812.03
2022-11-10T19:16:41.708Z,101826.69
2022-11-10T19:22:11.642Z,101834.50
2022-11-10T19:27:40.124Z,101846.56
2022-11-10T19:33:06.472Z,101869.94
2022-11-10T19:39:21.928Z,101880.25
2022-11-10T19:44:50.357Z,101882.88
2022-11-10T19:58:35.427Z,101887.00
2022-11-10T20:04:04.723Z,101887.84
2022-11-10T20:09:36.146Z,101880.81
2022-11-10T20:15:01.359Z,101882.53
2022-11-10T20:20:30.292Z,101878.97
2022-11-10T20:26:04.962Z,101889.31
2022-11-10T20:31:31.470Z,101895.34
2022-11-10T21:01:04.549Z,101899.53
2022-11-10T21:06:30.769Z,101906.38
2022-11-10T21:12:14.309Z,101913.31
2022-11-10T21:17:44.256Z,101921.00
2022-11-10T21:23:09.565Z,101919.31
2022-11-10T21:28:36.109Z,101927.88
2022-11-10T21:34:02.504Z,101930.50
2022-11-10T21:39:27.164Z,101922.59
2022-11-10T21:44:52.156Z,101920.81
2022-11-10T21:50:19.178Z,101932.06
2022-11-10T21:55:44.250Z,101927.69
2022-11-10T22:01:13.546Z,101935.50
2022-11-10T22:06:57.981Z,101931.97
2022-11-10T22:12:48.510Z,101923.25
2022-11-10T22:18:48.748Z,101935.22
2022-11-10T22:24:28.195Z,101950.88
2022-11-10T22:29:53.335Z,101949.06
2022-11-10T22:35:31.963Z,101956.81
2022-11-10T22:41:17.038Z,101969.63
2022-11-10T22:46:46.116Z,101974.88
2022-11-10T22:52:11.265Z,101978.28
2022-11-10T22:57:38.010Z,101985.97
2022-11-10T23:03:02.954Z,101989.41
2022-11-10T23:08:28.308Z,101994.53
2022-11-10T23:13:54.555Z,102006.53
2022-11-10T23:19:19.546Z,102008.19
2022-11-10T23:24:44.296Z,102011.59
2022-11-10T23:30:13.348Z,101986.59
2022-11-10T23:35:38.559Z,102007.25
2022-11-10T23:41:05.117Z,102011.59
2022-11-10T23:46:31.702Z,102020.06
2022-11-10T23:51:56.229Z,102018.41
2022-11-10T23:57:21.085Z,102020.13
